This is the latest recevied weather packets stored in our database for station/object JH1LWU-13. If no packets are shown the sender has not sent any weather packets the latest 10 day(s).
| Time | Temp. | Humidity | Pressure | Rain* | Wind** | Luminosity | Snow |
|---|---|---|---|---|---|---|---|
| 1787434965 | 24.44° C | 75% | 1014 hPa | - | - | - | - |
| 1787433164 | 24.44° C | 75% | 1014 hPa | - | - | - | - |
| 1787431363 | 24.44° C | 75% | 1011 hPa | - | - | - | - |
| 1787429562 | 23.89° C | 77% | 1012 hPa | - | - | - | - |
| 1787427761 | 25° C | 75% | 1011 hPa | - | - | - | - |
| 1787425960 | 24.44° C | 76% | 1012 hPa | - | - | - | - |
| 1787424159 | 25° C | 76% | 1011 hPa | - | - | - | - |
| 1787422358 | 25° C | 75% | 1013 hPa | - | - | - | - |
| 1787420557 | 24.44° C | 75% | 1012 hPa | - | - | - | - |
| 1787418756 | 24.44° C | 77% | 1012 hPa | - | - | - | - |
| 1787416955 | 24.44° C | 78% | 1012 hPa | - | - | - | - |
| 1787415154 | 26.11° C | 74% | 1012 hPa | - | - | - | - |
| 1787413353 | 25.56° C | 75% | 1012 hPa | - | - | - | - |
| 1787411552 | 25.56° C | 75% | 1010 hPa | - | - | - | - |
| 1787409751 | 26.11° C | 73% | 1012 hPa | - | - | - | - |
| 1787407950 | 26.67° C | 73% | 1013 hPa | - | - | - | - |
| 1787406149 | 27.22° C | 72% | 1012 hPa | - | - | - | - |
| 1787404348 | 28.89° C | 66% | 1012 hPa | - | - | - | - |
| 1787402547 | 25° C | 79% | 1012 hPa | - | - | - | - |
| 1787400746 | 25° C | 79% | 1013 hPa | - | - | - | - |
| 1787398945 | 25.56° C | 80% | 1012 hPa | - | - | - | - |
| 1787397144 | 25° C | 79% | 1013 hPa | - | - | - | - |
| 1787395343 | 25° C | 80% | 1011 hPa | - | - | - | - |
| 1787393542 | 25° C | 79% | 1012 hPa | - | - | - | - |
| 1787391741 | 25.56° C | 79% | 1011 hPa | - | - | - | - |
* Rain since midnight (hover to see other rain measurements)
** Current wind speed in m/s (hover to see current wind gust speed)